Time,TemperatureF,DewpointF,PressureIn,WindDirection,WindDirectionDegrees,WindSpeedMPH,WindSpeedGustMPH,Humidity,HourlyPrecipIn,Conditions,Clouds,dailyrainin,SolarRadiationWatts/m^2,SoftwareType,DateUTC
2013-10-25 00:01:00,43.1,30.0,29.87,WSW,255,0.0,-999.0,61,-99.99,,,0.00,0,weatherlink.com 1.10,2013-10-25 04:01:00,
2013-10-25 00:16:00,43.1,30.0,29.87,West,279,0.0,-999.0,60,-99.99,,,0.00,0,weatherlink.com 1.10,2013-10-25 04:16:00,
2013-10-25 00:31:00,42.8,30.0,29.88,West,275,0.0,-999.0,61,-99.99,,,0.00,0,weatherlink.com 1.10,2013-10-25 04:31:00,
2013-10-25 00:46:00,42.6,30.0,29.88,NW,306,0.0,-999.0,62,-99.99,,,0.00,0,weatherlink.com 1.10,2013-10-25 04:46:00,
2013-10-25 01:01:00,42.1,30.0,29.88,North,9,0.0,-999.0,63,-99.99,,,0.00,0,weatherlink.com 1.10,2013-10-25 05:01:00,
2013-10-25 01:16:00,41.9,30.0,29.89,NW,305,0.0,-999.0,63,-99.99,,,0.00,0,weatherlink.com 1.10,2013-10-25 05:16:00,
2013-10-25 01:31:00,41.8,30.0,29.89,NW,304,0.0,-999.0,63,-99.99,,,0.00,0,weatherlink.com 1.10,2013-10-25 05:31:00,
2013-10-25 01:46:00,41.5,30.0,29.90,WNW,300,0.0,-999.0,64,-99.99,,,0.00,0,weatherlink.com 1.10,2013-10-25 05:46:00,
2013-10-25 02:01:00,41.1,30.0,29.90,WNW,286,0.0,-999.0,65,-99.99,,,0.00,0,weatherlink.com 1.10,2013-10-25 06:01:00,
2013-10-25 02:16:00,40.9,30.0,29.90,North,355,2.0,-999.0,66,-99.99,,,0.00,0,weatherlink.com 1.10,2013-10-25 06:16:00,
2013-10-25 02:31:00,40.7,30.0,29.90,NNW,329,0.0,-999.0,66,-99.99,,,0.00,0,weatherlink.com 1.10,2013-10-25 06:31:00,
2013-10-25 02:46:00,40.6,30.0,29.90,NE,55,0.0,-999.0,66,-99.99,,,0.00,0,weatherlink.com 1.10,2013-10-25 06:46:00,
2013-10-25 03:01:00,40.4,30.0,29.90,West,277,0.0,-999.0,67,-99.99,,,0.00,0,weatherlink.com 1.10,2013-10-25 07:01:00,
2013-10-25 03:16:00,39.9,30.0,29.90,North,351,0.0,-999.0,68,-99.99,,,0.00,0,weatherlink.com 1.10,2013-10-25 07:16:00,
2013-10-25 03:31:00,39.5,30.0,29.90,NW,308,0.0,-999.0,69,-99.99,,,0.00,0,weatherlink.com 1.10,2013-10-25 07:31:00,
2013-10-25 03:46:00,38.9,30.0,29.90,NW,308,0.0,-999.0,70,-99.99,,,0.00,0,weatherlink.com 1.10,2013-10-25 07:46:00,
2013-10-25 04:16:00,38.0,30.0,29.91,NW,308,0.0,-999.0,73,-99.99,,,0.00,0,weatherlink.com 1.10,2013-10-25 08:16:00,
2013-10-25 04:31:00,37.6,30.0,29.92,NW,308,0.0,-999.0,74,-99.99,,,0.00,0,weatherlink.com 1.10,2013-10-25 08:31:00,
2013-10-25 04:46:00,37.2,30.0,29.93,NW,308,0.0,-999.0,75,-99.99,,,0.00,0,weatherlink.com 1.10,2013-10-25 08:46:00,
2013-10-25 05:01:00,36.8,30.0,29.93,NW,308,0.0,-999.0,76,-99.99,,,0.00,0,weatherlink.com 1.10,2013-10-25 09:01:00,
2013-10-25 05:16:00,36.4,30.0,29.94,NW,308,0.0,-999.0,77,-99.99,,,0.00,0,weatherlink.com 1.10,2013-10-25 09:16:00,
2013-10-25 05:31:00,36.2,30.0,29.94,NW,308,0.0,-999.0,78,-99.99,,,0.00,0,weatherlink.com 1.10,2013-10-25 09:31:00,
2013-10-25 05:46:00,36.2,30.0,29.95,NW,308,0.0,-999.0,79,-99.99,,,0.00,0,weatherlink.com 1.10,2013-10-25 09:46:00,
2013-10-25 06:01:00,36.2,31.0,29.95,NW,308,0.0,-999.0,80,-99.99,,,0.00,0,weatherlink.com 1.10,2013-10-25 10:01:00,
2013-10-25 06:16:00,36.3,31.0,29.95,North,5,0.0,-999.0,80,-99.99,,,0.00,0,weatherlink.com 1.10,2013-10-25 10:16:00,
2013-10-25 06:31:00,36.4,31.0,29.96,North,351,0.0,-999.0,80,-99.99,,,0.00,0,weatherlink.com 1.10,2013-10-25 10:31:00,
2013-10-25 06:46:00,36.4,31.0,29.96,North,351,0.0,-999.0,80,-99.99,,,0.00,0,weatherlink.com 1.10,2013-10-25 10:46:00,
2013-10-25 07:01:00,36.5,31.0,29.96,North,355,0.0,-999.0,81,-99.99,,,0.00,0,weatherlink.com 1.10,2013-10-25 11:01:00,
2013-10-25 07:16:00,36.5,31.0,29.97,NNW,348,2.0,-999.0,81,-99.99,,,0.00,5,weatherlink.com 1.10,2013-10-25 11:16:00,
2013-10-25 07:31:00,36.5,32.0,29.98,NW,307,0.0,-999.0,82,-99.99,,,0.00,11,weatherlink.com 1.10,2013-10-25 11:31:00,
2013-10-25 07:47:00,36.6,32.0,29.99,NNW,331,2.0,-999.0,82,-99.99,,,0.00,19,weatherlink.com 1.10,2013-10-25 11:47:00,
2013-10-25 08:02:00,36.9,32.0,29.99,NNW,344,0.0,-999.0,83,-99.99,,,0.00,21,weatherlink.com 1.10,2013-10-25 12:02:00,
2013-10-25 08:17:00,37.4,33.0,30.00,North,351,2.0,-999.0,83,-99.99,,,0.00,26,weatherlink.com 1.10,2013-10-25 12:17:00,
2013-10-25 08:32:00,38.0,33.0,30.00,West,271,2.0,-999.0,83,-99.99,,,0.00,30,weatherlink.com 1.10,2013-10-25 12:32:00,
2013-10-25 08:47:00,38.9,34.0,30.00,NNW,328,2.0,-999.0,82,-99.99,,,0.00,70,weatherlink.com 1.10,2013-10-25 12:47:00,
2013-10-25 09:02:00,39.9,35.0,30.00,NNW,331,1.0,-999.0,81,-99.99,,,0.00,35,weatherlink.com 1.10,2013-10-25 13:02:00,
2013-10-25 09:17:00,41.1,35.0,30.00,NNW,343,4.0,-999.0,79,-99.99,,,0.00,37,weatherlink.com 1.10,2013-10-25 13:17:00,
2013-10-25 09:32:00,42.3,35.0,30.00,NW,323,7.0,-999.0,76,-99.99,,,0.00,37,weatherlink.com 1.10,2013-10-25 13:32:00,
2013-10-25 09:47:00,43.3,36.0,30.01,NW,324,0.0,-999.0,74,-99.99,,,0.00,42,weatherlink.com 1.10,2013-10-25 13:47:00,
2013-10-25 10:02:00,44.3,36.0,30.01,North,355,0.0,-999.0,73,-99.99,,,0.00,199,weatherlink.com 1.10,2013-10-25 14:02:00,
2013-10-25 10:17:00,45.3,36.0,30.00,SSW,211,2.0,-999.0,69,-99.99,,,0.00,425,weatherlink.com 1.10,2013-10-25 14:17:00,
2013-10-25 10:32:00,46.0,35.0,30.01,North,350,2.0,-999.0,66,-99.99,,,0.00,450,weatherlink.com 1.10,2013-10-25 14:32:00,
2013-10-25 10:47:00,46.7,35.0,30.01,NW,306,0.0,-999.0,65,-99.99,,,0.00,480,weatherlink.com 1.10,2013-10-25 14:47:00,
2013-10-25 11:02:00,47.6,35.0,30.00,North,350,4.0,-999.0,63,-99.99,,,0.00,603,weatherlink.com 1.10,2013-10-25 15:02:00,
2013-10-25 11:17:00,48.3,34.0,29.99,NNW,346,9.0,-999.0,59,-99.99,,,0.00,165,weatherlink.com 1.10,2013-10-25 15:17:00,
2013-10-25 11:32:00,47.8,33.0,30.00,North,355,0.0,-999.0,58,-99.99,,,0.00,149,weatherlink.com 1.10,2013-10-25 15:32:00,
2013-10-25 11:47:00,47.6,34.0,30.00,NW,324,0.0,-999.0,59,-99.99,,,0.00,253,weatherlink.com 1.10,2013-10-25 15:47:00,
2013-10-25 12:02:00,48.0,34.0,29.99,North,355,7.0,-999.0,59,-99.99,,,0.00,174,weatherlink.com 1.10,2013-10-25 16:02:00,
2013-10-25 12:17:00,47.9,34.0,29.99,North,355,2.0,-999.0,59,-99.99,,,0.00,278,weatherlink.com 1.10,2013-10-25 16:17:00,
2013-10-25 12:32:00,48.4,34.0,29.99,West,263,1.0,-999.0,57,-99.99,,,0.00,199,weatherlink.com 1.10,2013-10-25 16:32:00,
2013-10-25 12:47:00,49.3,33.0,29.97,SW,229,0.0,-999.0,54,-99.99,,,0.00,197,weatherlink.com 1.10,2013-10-25 16:47:00,
2013-10-25 13:02:00,48.8,34.0,29.98,NNW,329,6.0,-999.0,57,-99.99,,,0.00,113,weatherlink.com 1.10,2013-10-25 17:02:00,
2013-10-25 13:17:00,48.0,34.0,29.98,NW,324,6.0,-999.0,59,-99.99,,,0.00,193,weatherlink.com 1.10,2013-10-25 17:17:00,
2013-10-25 13:32:00,47.7,33.0,29.97,NW,317,4.0,-999.0,58,-99.99,,,0.00,220,weatherlink.com 1.10,2013-10-25 17:32:00,
2013-10-25 13:47:00,47.9,33.0,29.98,WNW,297,0.0,-999.0,57,-99.99,,,0.00,190,weatherlink.com 1.10,2013-10-25 17:47:00,
2013-10-25 14:17:00,48.3,33.0,29.98,NW,325,6.0,-999.0,55,-99.99,,,0.00,211,weatherlink.com 1.10,2013-10-25 18:17:00,
2013-10-25 14:32:00,48.7,32.0,29.98,WNW,289,6.0,-999.0,52,-99.99,,,0.00,225,weatherlink.com 1.10,2013-10-25 18:32:00,
2013-10-25 14:47:00,48.8,32.0,29.99,NNW,345,5.0,-999.0,53,-99.99,,,0.00,128,weatherlink.com 1.10,2013-10-25 18:47:00,
2013-10-25 15:02:00,47.9,32.0,29.99,NW,310,2.0,-999.0,54,-99.99,,,0.00,156,weatherlink.com 1.10,2013-10-25 19:02:00,
2013-10-25 15:17:00,47.8,31.0,30.00,NNW,330,1.0,-999.0,53,-99.99,,,0.00,179,weatherlink.com 1.10,2013-10-25 19:17:00,
2013-10-25 15:32:00,48.0,31.0,30.00,NW,316,2.0,-999.0,52,-99.99,,,0.00,116,weatherlink.com 1.10,2013-10-25 19:32:00,
2013-10-25 15:48:00,47.6,31.0,30.00,NNW,331,4.0,-999.0,52,-99.99,,,0.00,70,weatherlink.com 1.10,2013-10-25 19:48:00,
2013-10-25 16:03:00,47.3,31.0,30.00,NNW,333,5.0,-999.0,53,-99.99,,,0.00,56,weatherlink.com 1.10,2013-10-25 20:03:00,
2013-10-25 16:18:00,47.5,31.0,30.00,NNW,336,4.0,-999.0,53,-99.99,,,0.00,72,weatherlink.com 1.10,2013-10-25 20:18:00,
2013-10-25 16:33:00,47.7,30.0,30.00,North,349,6.0,-999.0,51,-99.99,,,0.00,70,weatherlink.com 1.10,2013-10-25 20:33:00,
2013-10-25 16:48:00,47.7,30.0,30.01,NNW,329,6.0,-999.0,51,-99.99,,,0.00,47,weatherlink.com 1.10,2013-10-25 20:48:00,
2013-10-25 17:03:00,47.4,30.0,30.01,NNW,345,0.0,-999.0,52,-99.99,,,0.00,33,weatherlink.com 1.10,2013-10-25 21:03:00,
2013-10-25 17:18:00,47.2,30.0,30.01,NNW,327,2.0,-999.0,52,-99.99,,,0.00,18,weatherlink.com 1.10,2013-10-25 21:18:00,
2013-10-25 17:33:00,46.9,30.0,30.01,North,350,0.0,-999.0,53,-99.99,,,0.00,9,weatherlink.com 1.10,2013-10-25 21:33:00,
2013-10-25 18:03:00,46.3,30.0,30.03,NNW,338,0.0,-999.0,53,-99.99,,,0.00,0,weatherlink.com 1.10,2013-10-25 22:03:00,
2013-10-25 18:18:00,45.8,30.0,30.03,NNW,338,0.0,-999.0,55,-99.99,,,0.00,0,weatherlink.com 1.10,2013-10-25 22:18:00,
2013-10-25 18:33:00,45.1,31.0,30.04,NNW,338,0.0,-999.0,58,-99.99,,,0.00,0,weatherlink.com 1.10,2013-10-25 22:33:00,
2013-10-25 18:48:00,44.1,31.0,30.05,NNW,338,0.0,-999.0,60,-99.99,,,0.00,0,weatherlink.com 1.10,2013-10-25 22:48:00,
2013-10-25 19:03:00,42.9,31.0,30.05,NNW,338,0.0,-999.0,64,-99.99,,,0.00,0,weatherlink.com 1.10,2013-10-25 23:03:00,
2013-10-25 19:18:00,41.9,31.0,30.06,NNW,338,0.0,-999.0,66,-99.99,,,0.00,0,weatherlink.com 1.10,2013-10-25 23:18:00,
2013-10-25 19:33:00,40.9,31.0,30.07,NNW,338,0.0,-999.0,68,-99.99,,,0.00,0,weatherlink.com 1.10,2013-10-25 23:33:00,
2013-10-25 19:48:00,40.0,31.0,30.07,NNW,338,0.0,-999.0,70,-99.99,,,0.00,0,weatherlink.com 1.10,2013-10-25 23:48:00,
2013-10-25 20:03:00,39.2,31.0,30.08,NNW,338,0.0,-999.0,71,-99.99,,,0.00,0,weatherlink.com 1.10,2013-10-26 00:03:00,
2013-10-25 20:18:00,38.7,30.0,30.08,NNW,338,0.0,-999.0,72,-99.99,,,0.00,0,weatherlink.com 1.10,2013-10-26 00:18:00,
2013-10-25 20:33:00,38.2,30.0,30.08,NNW,338,0.0,-999.0,72,-99.99,,,0.00,0,weatherlink.com 1.10,2013-10-26 00:33:00,
2013-10-25 20:48:00,38.3,30.0,30.09,NNW,338,0.0,-999.0,72,-99.99,,,0.00,0,weatherlink.com 1.10,2013-10-26 00:48:00,
2013-10-25 21:03:00,38.4,30.0,30.10,NNW,338,0.0,-999.0,71,-99.99,,,0.00,0,weatherlink.com 1.10,2013-10-26 01:03:00,
2013-10-25 21:18:00,38.4,29.0,30.11,NNW,338,0.0,-999.0,70,-99.99,,,0.00,0,weatherlink.com 1.10,2013-10-26 01:18:00,
2013-10-25 21:33:00,38.3,30.0,30.12,NNW,338,0.0,-999.0,71,-99.99,,,0.00,0,weatherlink.com 1.10,2013-10-26 01:33:00,
2013-10-25 21:48:00,37.9,30.0,30.13,NNW,338,0.0,-999.0,72,-99.99,,,0.00,0,weatherlink.com 1.10,2013-10-26 01:48:00,
2013-10-25 22:03:00,37.4,29.0,30.13,NNW,338,0.0,-999.0,72,-99.99,,,0.00,0,weatherlink.com 1.10,2013-10-26 02:03:00,
2013-10-25 22:18:00,36.8,29.0,30.13,NNW,338,0.0,-999.0,73,-99.99,,,0.00,0,weatherlink.com 1.10,2013-10-26 02:18:00,
2013-10-25 22:33:00,36.2,29.0,30.13,NNW,338,0.0,-999.0,74,-99.99,,,0.00,0,weatherlink.com 1.10,2013-10-26 02:33:00,
2013-10-25 22:48:00,35.6,29.0,30.13,NNW,338,0.0,-999.0,76,-99.99,,,0.00,0,weatherlink.com 1.10,2013-10-26 02:48:00,
2013-10-25 23:03:00,35.0,28.0,30.14,NNW,338,0.0,-999.0,77,-99.99,,,0.00,0,weatherlink.com 1.10,2013-10-26 03:03:00,
2013-10-25 23:18:00,34.6,28.0,30.14,NNW,338,0.0,-999.0,78,-99.99,,,0.00,0,weatherlink.com 1.10,2013-10-26 03:18:00,
2013-10-25 23:33:00,34.3,29.0,30.14,NNW,338,0.0,-999.0,80,-99.99,,,0.00,0,weatherlink.com 1.10,2013-10-26 03:33:00,
2013-10-25 23:48:00,34.1,29.0,30.14,NNW,338,0.0,-999.0,81,-99.99,,,0.00,0,weatherlink.com 1.10,2013-10-26 03:48:00,